sensor_id;sensor_type;location;lat;lon;timestamp;temperature;humidity
32296;DHT22;18781;51.550;5.418;2023-08-21T00:02:23;23.60;60.90
32296;DHT22;18781;51.550;5.418;2023-08-21T00:04:51;23.60;61.00
32296;DHT22;18781;51.550;5.418;2023-08-21T00:07:16;23.60;61.10
32296;DHT22;18781;51.550;5.418;2023-08-21T00:09:42;23.50;61.10
32296;DHT22;18781;51.550;5.418;2023-08-21T00:12:07;23.50;61.20
32296;DHT22;18781;51.550;5.418;2023-08-21T00:14:33;23.50;61.20
32296;DHT22;18781;51.550;5.418;2023-08-21T00:16:59;23.40;61.80
32296;DHT22;18781;51.550;5.418;2023-08-21T00:19:24;23.40;61.50
32296;DHT22;18781;51.550;5.418;2023-08-21T00:21:50;23.40;62.00
32296;DHT22;18781;51.550;5.418;2023-08-21T00:24:15;23.40;62.00
32296;DHT22;18781;51.550;5.418;2023-08-21T00:26:41;23.40;62.00
32296;DHT22;18781;51.550;5.418;2023-08-21T00:29:07;23.30;61.80
32296;DHT22;18781;51.550;5.418;2023-08-21T00:31:32;23.30;61.90
32296;DHT22;18781;51.550;5.418;2023-08-21T00:33:58;23.30;62.00
32296;DHT22;18781;51.550;5.418;2023-08-21T00:36:23;23.30;62.10
32296;DHT22;18781;51.550;5.418;2023-08-21T00:38:49;23.30;62.20
32296;DHT22;18781;51.550;5.418;2023-08-21T00:41:15;23.30;62.20
32296;DHT22;18781;51.550;5.418;2023-08-21T00:43:40;23.20;62.30
32296;DHT22;18781;51.550;5.418;2023-08-21T00:46:06;23.20;62.30
32296;DHT22;18781;51.550;5.418;2023-08-21T00:48:32;23.20;62.30
32296;DHT22;18781;51.550;5.418;2023-08-21T00:50:58;23.10;62.30
32296;DHT22;18781;51.550;5.418;2023-08-21T00:53:24;23.10;62.50
32296;DHT22;18781;51.550;5.418;2023-08-21T00:55:50;23.10;62.50
32296;DHT22;18781;51.550;5.418;2023-08-21T00:58:17;23.10;62.70
32296;DHT22;18781;51.550;5.418;2023-08-21T01:00:45;23.10;63.00
32296;DHT22;18781;51.550;5.418;2023-08-21T01:03:12;23.00;63.10
32296;DHT22;18781;51.550;5.418;2023-08-21T01:05:38;23.00;62.90
32296;DHT22;18781;51.550;5.418;2023-08-21T01:08:17;23.00;63.10
32296;DHT22;18781;51.550;5.418;2023-08-21T01:10:52;23.00;63.70
32296;DHT22;18781;51.550;5.418;2023-08-21T01:13:33;23.00;63.60
32296;DHT22;18781;51.550;5.418;2023-08-21T01:16:00;22.90;63.60
32296;DHT22;18781;51.550;5.418;2023-08-21T01:18:26;22.90;63.40
32296;DHT22;18781;51.550;5.418;2023-08-21T01:20:54;22.90;63.60
32296;DHT22;18781;51.550;5.418;2023-08-21T01:23:34;22.90;63.60
32296;DHT22;18781;51.550;5.418;2023-08-21T01:26:00;22.80;64.20
32296;DHT22;18781;51.550;5.418;2023-08-21T01:28:26;22.80;63.70
32296;DHT22;18781;51.550;5.418;2023-08-21T01:31:05;22.70;63.70
32296;DHT22;18781;51.550;5.418;2023-08-21T01:33:37;22.70;63.90
32296;DHT22;18781;51.550;5.418;2023-08-21T01:36:06;22.70;64.00
32296;DHT22;18781;51.550;5.418;2023-08-21T01:38:33;22.60;63.80
32296;DHT22;18781;51.550;5.418;2023-08-21T01:40:58;22.60;63.90
32296;DHT22;18781;51.550;5.418;2023-08-21T01:43:24;22.60;64.00
32296;DHT22;18781;51.550;5.418;2023-08-21T01:45:49;22.60;63.80
32296;DHT22;18781;51.550;5.418;2023-08-21T01:48:15;22.60;64.10
32296;DHT22;18781;51.550;5.418;2023-08-21T01:50:41;22.50;64.20
32296;DHT22;18781;51.550;5.418;2023-08-21T01:53:06;22.50;64.10
32296;DHT22;18781;51.550;5.418;2023-08-21T01:55:32;22.50;64.10
32296;DHT22;18781;51.550;5.418;2023-08-21T01:57:57;22.50;64.20
32296;DHT22;18781;51.550;5.418;2023-08-21T02:00:23;22.40;64.30
32296;DHT22;18781;51.550;5.418;2023-08-21T02:02:49;22.40;64.40
32296;DHT22;18781;51.550;5.418;2023-08-21T02:05:14;22.40;64.50
32296;DHT22;18781;51.550;5.418;2023-08-21T02:07:40;22.30;64.50
32296;DHT22;18781;51.550;5.418;2023-08-21T02:10:06;22.30;64.40
32296;DHT22;18781;51.550;5.418;2023-08-21T02:12:32;22.20;64.50
32296;DHT22;18781;51.550;5.418;2023-08-21T02:14:57;22.20;64.50
32296;DHT22;18781;51.550;5.418;2023-08-21T02:17:26;22.20;64.60
32296;DHT22;18781;51.550;5.418;2023-08-21T02:19:52;22.20;64.90
32296;DHT22;18781;51.550;5.418;2023-08-21T02:22:17;22.20;64.80
32296;DHT22;18781;51.550;5.418;2023-08-21T02:24:43;22.10;64.90
32296;DHT22;18781;51.550;5.418;2023-08-21T02:27:09;22.10;65.00
32296;DHT22;18781;51.550;5.418;2023-08-21T02:29:34;22.10;65.10
32296;DHT22;18781;51.550;5.418;2023-08-21T02:32:00;22.00;65.10
32296;DHT22;18781;51.550;5.418;2023-08-21T02:34:26;22.00;65.20
32296;DHT22;18781;51.550;5.418;2023-08-21T02:36:52;22.00;65.20
32296;DHT22;18781;51.550;5.418;2023-08-21T02:39:18;22.00;65.30
32296;DHT22;18781;51.550;5.418;2023-08-21T02:41:43;22.00;65.40
32296;DHT22;18781;51.550;5.418;2023-08-21T02:44:09;21.90;65.20
32296;DHT22;18781;51.550;5.418;2023-08-21T02:46:34;21.90;65.50
32296;DHT22;18781;51.550;5.418;2023-08-21T02:49:01;21.90;65.30
32296;DHT22;18781;51.550;5.418;2023-08-21T02:51:27;21.90;65.50
32296;DHT22;18781;51.550;5.418;2023-08-21T02:53:53;21.90;65.60
32296;DHT22;18781;51.550;5.418;2023-08-21T02:56:19;21.80;65.70
32296;DHT22;18781;51.550;5.418;2023-08-21T02:58:44;21.70;65.70
32296;DHT22;18781;51.550;5.418;2023-08-21T03:01:10;21.70;65.70
32296;DHT22;18781;51.550;5.418;2023-08-21T03:03:35;21.70;65.90
32296;DHT22;18781;51.550;5.418;2023-08-21T03:06:01;21.60;65.90
32296;DHT22;18781;51.550;5.418;2023-08-21T03:08:27;21.60;65.90
32296;DHT22;18781;51.550;5.418;2023-08-21T03:10:53;21.60;66.00
32296;DHT22;18781;51.550;5.418;2023-08-21T03:13:18;21.60;66.00
32296;DHT22;18781;51.550;5.418;2023-08-21T03:15:44;21.50;66.10
32296;DHT22;18781;51.550;5.418;2023-08-21T03:18:10;21.50;66.20
32296;DHT22;18781;51.550;5.418;2023-08-21T03:20:36;21.50;66.20
32296;DHT22;18781;51.550;5.418;2023-08-21T03:23:01;21.50;66.30
32296;DHT22;18781;51.550;5.418;2023-08-21T03:25:28;21.50;66.10
32296;DHT22;18781;51.550;5.418;2023-08-21T03:27:54;21.50;66.30
32296;DHT22;18781;51.550;5.418;2023-08-21T03:30:19;21.40;66.40
32296;DHT22;18781;51.550;5.418;2023-08-21T03:32:45;21.40;66.50
32296;DHT22;18781;51.550;5.418;2023-08-21T03:35:10;21.40;66.60
32296;DHT22;18781;51.550;5.418;2023-08-21T03:37:36;21.40;66.70
32296;DHT22;18781;51.550;5.418;2023-08-21T03:40:03;21.30;66.80
32296;DHT22;18781;51.550;5.418;2023-08-21T03:42:29;21.30;66.90
32296;DHT22;18781;51.550;5.418;2023-08-21T03:44:54;21.30;67.00
32296;DHT22;18781;51.550;5.418;2023-08-21T03:47:20;21.20;67.00
32296;DHT22;18781;51.550;5.418;2023-08-21T03:49:46;21.20;67.10
32296;DHT22;18781;51.550;5.418;2023-08-21T03:52:13;21.20;67.30
32296;DHT22;18781;51.550;5.418;2023-08-21T03:54:39;21.20;67.30
32296;DHT22;18781;51.550;5.418;2023-08-21T03:57:05;21.20;67.30
32296;DHT22;18781;51.550;5.418;2023-08-21T03:59:30;21.20;67.40
32296;DHT22;18781;51.550;5.418;2023-08-21T04:01:56;21.20;67.40
32296;DHT22;18781;51.550;5.418;2023-08-21T04:04:22;21.20;67.50
32296;DHT22;18781;51.550;5.418;2023-08-21T04:06:47;21.10;68.10
32296;DHT22;18781;51.550;5.418;2023-08-21T04:09:13;21.10;67.40
32296;DHT22;18781;51.550;5.418;2023-08-21T04:11:38;21.10;67.30
32296;DHT22;18781;51.550;5.418;2023-08-21T04:14:04;21.10;67.40
32296;DHT22;18781;51.550;5.418;2023-08-21T04:16:30;21.10;67.60
32296;DHT22;18781;51.550;5.418;2023-08-21T04:18:56;21.10;67.50
32296;DHT22;18781;51.550;5.418;2023-08-21T04:21:22;21.10;67.60
32296;DHT22;18781;51.550;5.418;2023-08-21T04:23:48;21.00;67.60
32296;DHT22;18781;51.550;5.418;2023-08-21T04:26:13;21.00;67.60
32296;DHT22;18781;51.550;5.418;2023-08-21T04:28:39;21.00;67.60
32296;DHT22;18781;51.550;5.418;2023-08-21T04:31:05;21.00;67.70
32296;DHT22;18781;51.550;5.418;2023-08-21T04:33:31;20.90;67.80
32296;DHT22;18781;51.550;5.418;2023-08-21T04:35:57;20.90;67.90
32296;DHT22;18781;51.550;5.418;2023-08-21T04:38:23;20.90;68.00
32296;DHT22;18781;51.550;5.418;2023-08-21T04:40:49;20.90;68.10
32296;DHT22;18781;51.550;5.418;2023-08-21T04:43:14;20.90;68.20
32296;DHT22;18781;51.550;5.418;2023-08-21T04:45:52;20.90;68.30
32296;DHT22;18781;51.550;5.418;2023-08-21T04:48:18;20.90;68.90
32296;DHT22;18781;51.550;5.418;2023-08-21T04:50:45;20.90;68.40
32296;DHT22;18781;51.550;5.418;2023-08-21T04:53:11;20.90;68.70
32296;DHT22;18781;51.550;5.418;2023-08-21T04:55:37;20.90;68.60
32296;DHT22;18781;51.550;5.418;2023-08-21T04:58:02;20.90;68.70
32296;DHT22;18781;51.550;5.418;2023-08-21T05:00:29;20.90;68.80
32296;DHT22;18781;51.550;5.418;2023-08-21T05:02:54;20.90;68.80
32296;DHT22;18781;51.550;5.418;2023-08-21T05:05:20;20.90;69.00
32296;DHT22;18781;51.550;5.418;2023-08-21T05:07:46;20.90;69.10
32296;DHT22;18781;51.550;5.418;2023-08-21T05:10:11;20.90;69.10
32296;DHT22;18781;51.550;5.418;2023-08-21T05:12:37;20.90;69.10
32296;DHT22;18781;51.550;5.418;2023-08-21T05:15:03;20.90;69.10
32296;DHT22;18781;51.550;5.418;2023-08-21T05:17:29;20.90;69.10
32296;DHT22;18781;51.550;5.418;2023-08-21T05:19:55;20.90;69.20
32296;DHT22;18781;51.550;5.418;2023-08-21T05:22:20;20.90;69.20
32296;DHT22;18781;51.550;5.418;2023-08-21T05:24:46;20.90;69.30
32296;DHT22;18781;51.550;5.418;2023-08-21T05:27:12;20.90;69.30
32296;DHT22;18781;51.550;5.418;2023-08-21T05:29:37;20.90;69.40
32296;DHT22;18781;51.550;5.418;2023-08-21T05:32:03;20.90;69.50
32296;DHT22;18781;51.550;5.418;2023-08-21T05:34:28;20.90;69.50
32296;DHT22;18781;51.550;5.418;2023-08-21T05:36:54;21.00;69.70
32296;DHT22;18781;51.550;5.418;2023-08-21T05:39:20;21.00;69.70
32296;DHT22;18781;51.550;5.418;2023-08-21T05:41:46;21.00;69.70
32296;DHT22;18781;51.550;5.418;2023-08-21T05:44:11;21.00;69.80
32296;DHT22;18781;51.550;5.418;2023-08-21T05:46:37;21.00;69.80
32296;DHT22;18781;51.550;5.418;2023-08-21T05:49:03;21.00;70.00
32296;DHT22;18781;51.550;5.418;2023-08-21T05:51:29;21.10;70.00
32296;DHT22;18781;51.550;5.418;2023-08-21T05:53:55;21.10;70.00
32296;DHT22;18781;51.550;5.418;2023-08-21T05:56:22;21.10;69.90
32296;DHT22;18781;51.550;5.418;2023-08-21T05:58:47;21.10;70.00
32296;DHT22;18781;51.550;5.418;2023-08-21T06:01:13;21.10;69.90
32296;DHT22;18781;51.550;5.418;2023-08-21T06:03:39;21.10;69.90
32296;DHT22;18781;51.550;5.418;2023-08-21T06:06:04;21.20;70.10
32296;DHT22;18781;51.550;5.418;2023-08-21T06:08:30;21.20;70.20
32296;DHT22;18781;51.550;5.418;2023-08-21T06:10:56;21.20;70.30
32296;DHT22;18781;51.550;5.418;2023-08-21T06:13:22;21.20;70.40
32296;DHT22;18781;51.550;5.418;2023-08-21T06:15:47;21.20;70.50
32296;DHT22;18781;51.550;5.418;2023-08-21T06:18:13;21.30;70.60
32296;DHT22;18781;51.550;5.418;2023-08-21T06:20:42;21.30;70.70
32296;DHT22;18781;51.550;5.418;2023-08-21T06:23:08;21.40;70.90
32296;DHT22;18781;51.550;5.418;2023-08-21T06:25:34;21.40;70.80
32296;DHT22;18781;51.550;5.418;2023-08-21T06:27:59;21.40;70.90
32296;DHT22;18781;51.550;5.418;2023-08-21T06:30:26;21.50;71.00
32296;DHT22;18781;51.550;5.418;2023-08-21T06:32:52;21.50;71.20
32296;DHT22;18781;51.550;5.418;2023-08-21T06:35:17;21.60;71.10
32296;DHT22;18781;51.550;5.418;2023-08-21T06:37:43;21.60;71.00
32296;DHT22;18781;51.550;5.418;2023-08-21T06:40:09;21.70;71.00
32296;DHT22;18781;51.550;5.418;2023-08-21T06:42:35;21.80;71.10
32296;DHT22;18781;51.550;5.418;2023-08-21T06:45:00;21.80;71.00
32296;DHT22;18781;51.550;5.418;2023-08-21T06:47:26;21.90;70.90
32296;DHT22;18781;51.550;5.418;2023-08-21T06:49:52;22.00;70.90
32296;DHT22;18781;51.550;5.418;2023-08-21T06:52:17;22.00;70.70
32296;DHT22;18781;51.550;5.418;2023-08-21T06:54:43;22.10;70.40
32296;DHT22;18781;51.550;5.418;2023-08-21T06:57:09;22.10;70.20
32296;DHT22;18781;51.550;5.418;2023-08-21T06:59:34;22.20;70.10
32296;DHT22;18781;51.550;5.418;2023-08-21T07:02:02;22.20;69.80
32296;DHT22;18781;51.550;5.418;2023-08-21T07:04:28;22.30;69.70
32296;DHT22;18781;51.550;5.418;2023-08-21T07:06:54;22.40;69.70
32296;DHT22;18781;51.550;5.418;2023-08-21T07:09:19;22.40;69.50
32296;DHT22;18781;51.550;5.418;2023-08-21T07:11:45;22.50;69.50
32296;DHT22;18781;51.550;5.418;2023-08-21T07:14:11;22.60;69.40
32296;DHT22;18781;51.550;5.418;2023-08-21T07:16:39;22.60;69.10
32296;DHT22;18781;51.550;5.418;2023-08-21T07:19:05;22.60;69.20
32296;DHT22;18781;51.550;5.418;2023-08-21T07:21:31;22.70;69.30
32296;DHT22;18781;51.550;5.418;2023-08-21T07:23:56;22.80;69.10
32296;DHT22;18781;51.550;5.418;2023-08-21T07:26:22;22.80;69.10
32296;DHT22;18781;51.550;5.418;2023-08-21T07:28:48;22.90;68.80
32296;DHT22;18781;51.550;5.418;2023-08-21T07:31:13;22.90;68.90
32296;DHT22;18781;51.550;5.418;2023-08-21T07:33:39;23.00;68.80
32296;DHT22;18781;51.550;5.418;2023-08-21T07:36:05;23.10;68.70
32296;DHT22;18781;51.550;5.418;2023-08-21T07:38:31;23.10;68.30
32296;DHT22;18781;51.550;5.418;2023-08-21T07:41:08;23.20;68.00
32296;DHT22;18781;51.550;5.418;2023-08-21T07:43:35;23.20;67.90
32296;DHT22;18781;51.550;5.418;2023-08-21T07:46:05;23.30;68.10
32296;DHT22;18781;51.550;5.418;2023-08-21T07:48:31;23.40;67.90
32296;DHT22;18781;51.550;5.418;2023-08-21T07:50:57;23.40;67.90
32296;DHT22;18781;51.550;5.418;2023-08-21T07:53:23;23.50;68.40
32296;DHT22;18781;51.550;5.418;2023-08-21T07:55:49;23.50;67.80
32296;DHT22;18781;51.550;5.418;2023-08-21T07:58:14;23.60;67.50
32296;DHT22;18781;51.550;5.418;2023-08-21T08:00:40;23.70;67.50
32296;DHT22;18781;51.550;5.418;2023-08-21T08:03:08;23.80;67.50
32296;DHT22;18781;51.550;5.418;2023-08-21T08:05:34;23.80;67.00
32296;DHT22;18781;51.550;5.418;2023-08-21T08:07:59;23.80;66.70
32296;DHT22;18781;51.550;5.418;2023-08-21T08:10:25;23.90;66.60
32296;DHT22;18781;51.550;5.418;2023-08-21T08:12:51;23.90;66.10
32296;DHT22;18781;51.550;5.418;2023-08-21T08:15:17;24.00;66.10
32296;DHT22;18781;51.550;5.418;2023-08-21T08:17:43;24.00;65.50
32296;DHT22;18781;51.550;5.418;2023-08-21T08:20:11;24.10;65.10
32296;DHT22;18781;51.550;5.418;2023-08-21T08:22:37;24.20;65.10
32296;DHT22;18781;51.550;5.418;2023-08-21T08:25:03;24.20;65.20
32296;DHT22;18781;51.550;5.418;2023-08-21T08:27:31;24.30;64.90
32296;DHT22;18781;51.550;5.418;2023-08-21T08:29:57;24.30;64.90
32296;DHT22;18781;51.550;5.418;2023-08-21T08:32:22;24.40;65.10
32296;DHT22;18781;51.550;5.418;2023-08-21T08:34:48;24.40;64.60
32296;DHT22;18781;51.550;5.418;2023-08-21T08:37:13;24.50;64.50
32296;DHT22;18781;51.550;5.418;2023-08-21T08:39:39;24.60;64.30
32296;DHT22;18781;51.550;5.418;2023-08-21T08:42:06;24.60;63.60
32296;DHT22;18781;51.550;5.418;2023-08-21T08:44:35;24.70;64.30
32296;DHT22;18781;51.550;5.418;2023-08-21T08:47:01;24.70;64.30
32296;DHT22;18781;51.550;5.418;2023-08-21T08:49:27;24.80;64.00
32296;DHT22;18781;51.550;5.418;2023-08-21T08:52:02;24.90;63.90
32296;DHT22;18781;51.550;5.418;2023-08-21T08:54:29;25.00;63.90
32296;DHT22;18781;51.550;5.418;2023-08-21T08:56:56;25.00;64.10
32296;DHT22;18781;51.550;5.418;2023-08-21T08:59:21;25.10;63.80
32296;DHT22;18781;51.550;5.418;2023-08-21T09:01:47;25.10;63.90
32296;DHT22;18781;51.550;5.418;2023-08-21T09:04:13;25.20;63.90
32296;DHT22;18781;51.550;5.418;2023-08-21T09:06:39;25.20;63.90
32296;DHT22;18781;51.550;5.418;2023-08-21T09:09:05;25.30;64.10
32296;DHT22;18781;51.550;5.418;2023-08-21T09:11:33;25.40;63.60
32296;DHT22;18781;51.550;5.418;2023-08-21T09:13:59;25.40;63.50
32296;DHT22;18781;51.550;5.418;2023-08-21T09:16:25;25.50;62.90
32296;DHT22;18781;51.550;5.418;2023-08-21T09:18:56;25.60;62.90
32296;DHT22;18781;51.550;5.418;2023-08-21T09:21:23;25.60;62.10
32296;DHT22;18781;51.550;5.418;2023-08-21T09:23:57;25.70;62.80
32296;DHT22;18781;51.550;5.418;2023-08-21T09:26:24;25.80;61.50
32296;DHT22;18781;51.550;5.418;2023-08-21T09:28:51;25.80;61.60
32296;DHT22;18781;51.550;5.418;2023-08-21T09:31:22;25.80;61.40
32296;DHT22;18781;51.550;5.418;2023-08-21T09:33:55;25.90;60.70
32296;DHT22;18781;51.550;5.418;2023-08-21T09:36:22;26.00;59.40
32296;DHT22;18781;51.550;5.418;2023-08-21T09:38:48;26.00;59.00
32296;DHT22;18781;51.550;5.418;2023-08-21T09:41:13;26.10;59.30
32296;DHT22;18781;51.550;5.418;2023-08-21T09:43:42;26.10;59.70
32296;DHT22;18781;51.550;5.418;2023-08-21T09:46:08;26.20;59.60
32296;DHT22;18781;51.550;5.418;2023-08-21T09:48:34;26.20;59.70
32296;DHT22;18781;51.550;5.418;2023-08-21T09:51:00;26.30;60.00
32296;DHT22;18781;51.550;5.418;2023-08-21T09:53:30;26.40;60.60
32296;DHT22;18781;51.550;5.418;2023-08-21T09:55:55;26.50;60.10
32296;DHT22;18781;51.550;5.418;2023-08-21T09:58:21;26.50;59.70
32296;DHT22;18781;51.550;5.418;2023-08-21T10:00:49;26.60;59.30
32296;DHT22;18781;51.550;5.418;2023-08-21T10:03:20;26.70;59.20
32296;DHT22;18781;51.550;5.418;2023-08-21T10:05:47;26.80;58.50
32296;DHT22;18781;51.550;5.418;2023-08-21T10:08:15;26.90;58.90
32296;DHT22;18781;51.550;5.418;2023-08-21T10:10:42;26.90;58.90
32296;DHT22;18781;51.550;5.418;2023-08-21T10:13:09;27.10;58.70
32296;DHT22;18781;51.550;5.418;2023-08-21T10:15:37;27.10;57.80
32296;DHT22;18781;51.550;5.418;2023-08-21T10:18:35;27.20;56.40
32296;DHT22;18781;51.550;5.418;2023-08-21T10:21:17;27.30;57.20
32296;DHT22;18781;51.550;5.418;2023-08-21T10:23:47;27.30;57.20
32296;DHT22;18781;51.550;5.418;2023-08-21T10:26:14;27.40;56.80
32296;DHT22;18781;51.550;5.418;2023-08-21T10:28:54;27.40;56.90
32296;DHT22;18781;51.550;5.418;2023-08-21T10:31:40;27.50;56.50
32296;DHT22;18781;51.550;5.418;2023-08-21T10:34:10;27.60;55.30
32296;DHT22;18781;51.550;5.418;2023-08-21T10:39:17;27.60;55.70
32296;DHT22;18781;51.550;5.418;2023-08-21T10:41:55;27.70;55.30
32296;DHT22;18781;51.550;5.418;2023-08-21T10:44:48;27.70;53.80
32296;DHT22;18781;51.550;5.418;2023-08-21T10:49:53;27.80;53.80
32296;DHT22;18781;51.550;5.418;2023-08-21T10:52:30;27.80;53.10
32296;DHT22;18781;51.550;5.418;2023-08-21T10:54:58;27.90;52.70
32296;DHT22;18781;51.550;5.418;2023-08-21T10:57:26;27.90;54.50
32296;DHT22;18781;51.550;5.418;2023-08-21T11:02:19;28.00;53.90
32296;DHT22;18781;51.550;5.418;2023-08-21T11:04:45;28.10;54.80
32296;DHT22;18781;51.550;5.418;2023-08-21T11:07:11;28.20;54.70
32296;DHT22;18781;51.550;5.418;2023-08-21T11:09:38;28.20;53.50
32296;DHT22;18781;51.550;5.418;2023-08-21T11:12:09;28.30;53.90
32296;DHT22;18781;51.550;5.418;2023-08-21T11:14:34;28.30;53.90
32296;DHT22;18781;51.550;5.418;2023-08-21T11:17:01;28.30;54.50
32296;DHT22;18781;51.550;5.418;2023-08-21T11:19:26;28.40;52.90
32296;DHT22;18781;51.550;5.418;2023-08-21T11:21:52;28.50;52.30
32296;DHT22;18781;51.550;5.418;2023-08-21T11:24:18;28.50;52.60
32296;DHT22;18781;51.550;5.418;2023-08-21T11:26:43;28.60;52.80
32296;DHT22;18781;51.550;5.418;2023-08-21T11:29:09;28.60;52.30
32296;DHT22;18781;51.550;5.418;2023-08-21T11:31:34;28.60;52.60
32296;DHT22;18781;51.550;5.418;2023-08-21T11:34:00;28.60;51.60
32296;DHT22;18781;51.550;5.418;2023-08-21T11:36:26;28.60;52.10
32296;DHT22;18781;51.550;5.418;2023-08-21T11:38:59;28.60;52.80
32296;DHT22;18781;51.550;5.418;2023-08-21T11:41:28;28.60;52.70
32296;DHT22;18781;51.550;5.418;2023-08-21T11:44:01;28.70;52.80
32296;DHT22;18781;51.550;5.418;2023-08-21T11:46:28;28.70;53.00
32296;DHT22;18781;51.550;5.418;2023-08-21T11:48:54;28.70;51.80
32296;DHT22;18781;51.550;5.418;2023-08-21T11:51:19;28.80;51.80
32296;DHT22;18781;51.550;5.418;2023-08-21T11:53:47;28.80;51.50
32296;DHT22;18781;51.550;5.418;2023-08-21T11:56:16;28.80;50.30
32296;DHT22;18781;51.550;5.418;2023-08-21T11:58:44;28.80;50.70
32296;DHT22;18781;51.550;5.418;2023-08-21T12:01:21;28.80;50.90
32296;DHT22;18781;51.550;5.418;2023-08-21T12:03:47;28.80;50.50
32296;DHT22;18781;51.550;5.418;2023-08-21T12:06:21;28.80;49.50
32296;DHT22;18781;51.550;5.418;2023-08-21T12:08:47;28.80;50.70
32296;DHT22;18781;51.550;5.418;2023-08-21T12:11:12;28.70;51.00
32296;DHT22;18781;51.550;5.418;2023-08-21T12:13:38;28.70;50.60
32296;DHT22;18781;51.550;5.418;2023-08-21T12:16:04;28.70;51.80
32296;DHT22;18781;51.550;5.418;2023-08-21T12:18:30;28.80;50.80
32296;DHT22;18781;51.550;5.418;2023-08-21T12:20:55;28.80;51.30
32296;DHT22;18781;51.550;5.418;2023-08-21T12:23:21;28.80;50.50
32296;DHT22;18781;51.550;5.418;2023-08-21T12:25:47;28.90;49.40
32296;DHT22;18781;51.550;5.418;2023-08-21T12:28:12;28.90;48.80
32296;DHT22;18781;51.550;5.418;2023-08-21T12:30:38;28.90;49.70
32296;DHT22;18781;51.550;5.418;2023-08-21T12:33:04;28.90;50.30
32296;DHT22;18781;51.550;5.418;2023-08-21T12:35:30;29.00;50.70
32296;DHT22;18781;51.550;5.418;2023-08-21T12:37:57;29.00;50.60
32296;DHT22;18781;51.550;5.418;2023-08-21T12:40:23;29.00;51.20
32296;DHT22;18781;51.550;5.418;2023-08-21T12:42:49;29.10;51.00
32296;DHT22;18781;51.550;5.418;2023-08-21T12:45:16;29.10;50.50
32296;DHT22;18781;51.550;5.418;2023-08-21T12:47:41;29.10;50.00
32296;DHT22;18781;51.550;5.418;2023-08-21T12:50:08;29.20;48.90
32296;DHT22;18781;51.550;5.418;2023-08-21T12:52:33;29.30;48.90
32296;DHT22;18781;51.550;5.418;2023-08-21T12:54:59;29.30;49.30
32296;DHT22;18781;51.550;5.418;2023-08-21T12:57:27;29.30;49.50
32296;DHT22;18781;51.550;5.418;2023-08-21T12:59:52;29.40;49.60
32296;DHT22;18781;51.550;5.418;2023-08-21T13:02:18;29.40;49.00
32296;DHT22;18781;51.550;5.418;2023-08-21T13:04:44;29.50;48.90
32296;DHT22;18781;51.550;5.418;2023-08-21T13:07:10;29.50;49.40
32296;DHT22;18781;51.550;5.418;2023-08-21T13:09:35;29.60;48.80
32296;DHT22;18781;51.550;5.418;2023-08-21T13:12:01;29.70;49.00
32296;DHT22;18781;51.550;5.418;2023-08-21T13:14:27;29.70;48.00
32296;DHT22;18781;51.550;5.418;2023-08-21T13:16:52;29.80;48.70
32296;DHT22;18781;51.550;5.418;2023-08-21T13:19:18;29.80;48.40
32296;DHT22;18781;51.550;5.418;2023-08-21T13:21:44;29.80;47.50
32296;DHT22;18781;51.550;5.418;2023-08-21T13:24:10;29.90;47.00
32296;DHT22;18781;51.550;5.418;2023-08-21T13:26:36;29.90;47.80
32296;DHT22;18781;51.550;5.418;2023-08-21T13:29:01;30.00;46.10
32296;DHT22;18781;51.550;5.418;2023-08-21T13:31:27;30.00;47.50
32296;DHT22;18781;51.550;5.418;2023-08-21T13:33:54;30.00;47.70
32296;DHT22;18781;51.550;5.418;2023-08-21T13:36:20;30.00;47.60
32296;DHT22;18781;51.550;5.418;2023-08-21T13:38:46;30.00;48.60
32296;DHT22;18781;51.550;5.418;2023-08-21T13:41:12;30.10;47.70
32296;DHT22;18781;51.550;5.418;2023-08-21T13:43:38;30.10;47.30
32296;DHT22;18781;51.550;5.418;2023-08-21T13:46:04;30.20;47.80
32296;DHT22;18781;51.550;5.418;2023-08-21T13:48:31;30.30;47.90
32296;DHT22;18781;51.550;5.418;2023-08-21T13:50:57;30.30;47.20
32296;DHT22;18781;51.550;5.418;2023-08-21T13:53:22;30.30;47.70
32296;DHT22;18781;51.550;5.418;2023-08-21T13:55:49;30.40;47.50
32296;DHT22;18781;51.550;5.418;2023-08-21T13:58:14;30.40;47.10
32296;DHT22;18781;51.550;5.418;2023-08-21T14:00:40;30.50;47.40
32296;DHT22;18781;51.550;5.418;2023-08-21T14:03:06;30.50;47.00
32296;DHT22;18781;51.550;5.418;2023-08-21T14:05:31;30.50;45.80
32296;DHT22;18781;51.550;5.418;2023-08-21T14:07:59;30.50;46.30
32296;DHT22;18781;51.550;5.418;2023-08-21T14:10:25;30.60;45.80
32296;DHT22;18781;51.550;5.418;2023-08-21T14:12:51;30.60;46.50
32296;DHT22;18781;51.550;5.418;2023-08-21T14:15:17;30.60;46.50
32296;DHT22;18781;51.550;5.418;2023-08-21T14:17:44;30.60;46.80
32296;DHT22;18781;51.550;5.418;2023-08-21T14:20:10;30.60;45.90
32296;DHT22;18781;51.550;5.418;2023-08-21T14:22:36;30.60;44.90
32296;DHT22;18781;51.550;5.418;2023-08-21T14:25:02;30.60;45.50
32296;DHT22;18781;51.550;5.418;2023-08-21T14:27:31;30.60;45.30
32296;DHT22;18781;51.550;5.418;2023-08-21T14:29:57;30.50;44.90
32296;DHT22;18781;51.550;5.418;2023-08-21T14:32:22;30.50;45.30
32296;DHT22;18781;51.550;5.418;2023-08-21T14:34:48;30.40;46.10
32296;DHT22;18781;51.550;5.418;2023-08-21T14:37:14;30.40;43.70
32296;DHT22;18781;51.550;5.418;2023-08-21T14:39:41;30.40;44.70
32296;DHT22;18781;51.550;5.418;2023-08-21T14:42:08;30.40;44.70
32296;DHT22;18781;51.550;5.418;2023-08-21T14:44:34;30.40;45.70
32296;DHT22;18781;51.550;5.418;2023-08-21T14:47:00;30.40;44.50
32296;DHT22;18781;51.550;5.418;2023-08-21T14:49:25;30.40;43.70
32296;DHT22;18781;51.550;5.418;2023-08-21T14:51:51;30.40;43.60
32296;DHT22;18781;51.550;5.418;2023-08-21T14:54:17;30.40;43.00
32296;DHT22;18781;51.550;5.418;2023-08-21T14:56:43;30.40;43.00
32296;DHT22;18781;51.550;5.418;2023-08-21T14:59:09;30.30;43.20
32296;DHT22;18781;51.550;5.418;2023-08-21T15:01:38;30.30;44.60
32296;DHT22;18781;51.550;5.418;2023-08-21T15:04:05;30.30;44.30
32296;DHT22;18781;51.550;5.418;2023-08-21T15:06:30;30.20;43.40
32296;DHT22;18781;51.550;5.418;2023-08-21T15:08:56;30.20;43.70
32296;DHT22;18781;51.550;5.418;2023-08-21T15:11:22;30.30;43.60
32296;DHT22;18781;51.550;5.418;2023-08-21T15:13:47;30.20;43.20
32296;DHT22;18781;51.550;5.418;2023-08-21T15:16:13;30.30;42.80
32296;DHT22;18781;51.550;5.418;2023-08-21T15:18:38;30.20;43.20
32296;DHT22;18781;51.550;5.418;2023-08-21T15:21:04;30.20;43.20
32296;DHT22;18781;51.550;5.418;2023-08-21T15:23:30;30.20;42.50
32296;DHT22;18781;51.550;5.418;2023-08-21T15:25:55;30.20;43.70
32296;DHT22;18781;51.550;5.418;2023-08-21T15:28:21;30.20;43.40
32296;DHT22;18781;51.550;5.418;2023-08-21T15:30:46;30.30;43.30
32296;DHT22;18781;51.550;5.418;2023-08-21T15:33:12;30.30;43.60
32296;DHT22;18781;51.550;5.418;2023-08-21T15:35:38;30.30;43.50